Time;durP1;ratioP1;P1;durP2;ratioP2;P2;SDS_P1;SDS_P2;PMS_P1;PMS_P2;Temp;Humidity;BMP_temperature;BMP_pressure;BME280_temperature;BME280_humidity;BME280_pressure;Samples;Min_cycle;Max_cycle;Signal;HPM_P1;HPM_P2
2022/09/25 00:01:12;;;;;;;14.07;11.50;;;13.60;99.90;;;;;;5037510;28;20036;-50
2022/09/25 00:03:39;;;;;;;24.08;15.18;;;13.30;99.90;;;;;;5033484;28;20071;-50
2022/09/25 00:06:07;;;;;;;17.02;11.15;;;13.40;99.90;;;;;;5056008;28;20048;-50
2022/09/25 00:08:35;;;;;;;13.23;10.27;;;13.20;99.90;;;;;;5044775;28;20083;-50
2022/09/25 00:11:06;;;;;;;10.55;8.55;;;13.00;99.90;;;;;;5037830;28;20038;-49
2022/09/25 00:13:32;;;;;;;12.98;9.52;;;12.80;99.90;;;;;;5037017;28;20021;-50
2022/09/25 00:15:58;;;;;;;14.05;10.30;;;13.00;99.90;;;;;;5036597;28;20038;-50
2022/09/25 00:21:13;;;;;;;17.33;12.20;;;13.10;99.90;;;;;;5040773;28;20530;-49
2022/09/25 00:23:40;;;;;;;17.90;13.02;;;13.30;99.90;;;;;;5037148;28;20500;-50
2022/09/25 00:26:07;;;;;;;16.67;12.85;;;13.40;99.90;;;;;;5039884;28;20028;-49
2022/09/25 00:28:34;;;;;;;15.77;12.30;;;13.50;99.90;;;;;;5037661;28;20108;-50
2022/09/25 00:31:01;;;;;;;14.80;11.82;;;13.60;99.90;;;;;;5036897;28;20091;-50
2022/09/25 00:33:27;;;;;;;17.67;12.43;;;13.70;99.90;;;;;;5038523;28;20060;-50
2022/09/25 00:35:53;;;;;;;81.32;41.67;;;13.60;99.90;;;;;;5040473;28;20064;-49
2022/09/25 00:38:19;;;;;;;20.83;14.95;;;13.40;99.90;;;;;;5042096;28;20025;-49
2022/09/25 00:40:44;;;;;;;19.00;12.13;;;13.20;99.90;;;;;;5038356;28;20022;-50
2022/09/25 00:43:31;;;;;;;18.38;12.23;;;13.20;99.90;;;;;;5036978;28;20060;-49
2022/09/25 00:45:58;;;;;;;14.88;11.35;;;13.30;99.90;;;;;;5039428;28;20084;-50
2022/09/25 00:48:24;;;;;;;14.70;10.82;;;13.30;99.90;;;;;;5041009;28;20497;-50
2022/09/25 00:50:52;;;;;;;13.40;11.00;;;13.40;99.90;;;;;;5036454;28;20115;-50
2022/09/25 00:53:24;;;;;;;15.88;11.10;;;13.40;99.90;;;;;;5039154;28;20014;-50
2022/09/25 00:55:50;;;;;;;19.58;15.43;;;13.60;99.90;;;;;;5038577;28;20025;-53
2022/09/25 00:58:20;;;;;;;37.47;24.10;;;13.70;99.90;;;;;;5040193;28;20358;-49
2022/09/25 01:00:46;;;;;;;19.65;13.77;;;13.70;99.90;;;;;;5037502;28;20034;-49
2022/09/25 01:03:12;;;;;;;18.45;12.02;;;13.70;99.90;;;;;;5049624;28;20034;-49
2022/09/25 01:05:42;;;;;;;15.73;11.27;;;13.70;99.90;;;;;;5036576;28;20075;-49
2022/09/25 01:08:13;;;;;;;14.00;10.63;;;13.60;99.90;;;;;;5035638;28;20107;-50
2022/09/25 01:10:40;;;;;;;13.45;11.27;;;13.60;99.90;;;;;;5036182;28;20041;-49
2022/09/25 01:13:07;;;;;;;15.25;10.65;;;13.60;99.90;;;;;;5038143;28;20168;-49
2022/09/25 01:15:48;;;;;;;11.70;9.95;;;13.50;99.90;;;;;;5033792;28;20055;-50
2022/09/25 01:18:38;;;;;;;11.55;9.98;;;13.60;99.90;;;;;;5034140;28;20037;-50
2022/09/25 01:21:15;;;;;;;14.35;11.15;;;13.60;99.90;;;;;;5038832;28;20040;-50
2022/09/25 01:24:07;;;;;;;14.00;11.02;;;13.50;99.90;;;;;;5034321;28;20481;-50
2022/09/25 01:26:41;;;;;;;19.05;11.25;;;13.50;99.90;;;;;;5038999;28;20025;-50
2022/09/25 01:29:44;;;;;;;19.77;14.80;;;13.50;99.90;;;;;;5050116;28;20084;-50
2022/09/25 01:32:46;;;;;;;16.83;12.02;;;13.30;99.90;;;;;;5038061;28;20041;-50
2022/09/25 01:35:30;;;;;;;18.20;12.85;;;13.30;99.90;;;;;;5011972;28;20095;-50
2022/09/25 01:38:01;;;;;;;17.65;14.30;;;13.50;99.90;;;;;;5037196;28;20045;-51
2022/09/25 01:40:33;;;;;;;16.80;13.70;;;13.40;99.90;;;;;;5049870;28;21112;-50
2022/09/25 01:43:25;;;;;;;16.20;11.10;;;13.50;99.90;;;;;;5036135;28;20465;-50
2022/09/25 01:45:56;;;;;;;13.63;11.88;;;13.50;99.90;;;;;;5033803;28;20128;-50
2022/09/25 01:48:27;;;;;;;14.38;11.32;;;13.50;99.90;;;;;;5038603;28;20048;-50
2022/09/25 01:51:01;;;;;;;14.20;12.27;;;13.50;99.90;;;;;;5032869;28;20040;-50
2022/09/25 01:53:38;;;;;;;16.23;11.40;;;13.50;99.90;;;;;;5036773;28;20369;-50
2022/09/25 01:56:11;;;;;;;13.60;11.75;;;13.50;99.90;;;;;;5037015;28;20032;-50
2022/09/25 01:58:46;;;;;;;15.93;11.85;;;13.50;99.90;;;;;;5036215;28;20499;-49
2022/09/25 02:01:25;;;;;;;16.65;13.38;;;13.40;99.90;;;;;;5038683;28;20505;-50
2022/09/25 02:03:57;;;;;;;18.10;15.52;;;13.40;99.90;;;;;;5034963;28;20485;-49
2022/09/25 02:06:24;;;;;;;25.50;17.67;;;13.10;99.90;;;;;;5035653;28;20029;-50
2022/09/25 02:09:18;;;;;;;21.02;18.00;;;13.00;99.90;;;;;;5042158;28;20056;-49
2022/09/25 02:11:49;;;;;;;16.75;13.27;;;12.90;99.90;;;;;;5033865;28;20496;-51
2022/09/25 02:14:21;;;;;;;15.20;11.70;;;12.60;99.90;;;;;;5036338;28;20103;-50
2022/09/25 02:16:53;;;;;;;12.57;10.65;;;12.30;99.90;;;;;;5038331;28;20045;-50
2022/09/25 02:22:27;;;;;;;22.88;18.80;;;12.00;99.90;;;;;;4992647;28;20445;-50
2022/09/25 02:25:04;;;;;;;25.15;22.60;;;12.30;99.90;;;;;;4988045;28;20058;-50
2022/09/25 02:27:29;;;;;;;27.02;23.98;;;12.50;99.90;;;;;;4991630;28;20169;-50
2022/09/25 02:29:57;;;;;;;32.00;28.20;;;12.60;99.90;;;;;;4970483;28;20331;-51
2022/09/25 02:32:28;;;;;;;30.73;27.50;;;12.30;99.90;;;;;;4992509;28;20047;-50
2022/09/25 02:34:55;;;;;;;53.28;48.20;;;12.40;99.90;;;;;;4987968;28;20433;-50
2022/09/25 02:37:21;;;;;;;28.67;22.70;;;12.50;99.90;;;;;;4982109;28;20050;-50
2022/09/25 02:39:51;;;;;;;21.38;17.50;;;12.40;99.90;;;;;;4991909;28;20529;-50
2022/09/25 02:42:47;;;;;;;20.52;12.63;;;12.40;99.90;;;;;;4992244;28;20038;-50
2022/09/25 02:45:20;;;;;;;13.52;11.43;;;12.60;99.90;;;;;;4952330;29;20055;-50
2022/09/25 02:48:07;;;;;;;16.23;10.82;;;12.70;99.90;;;;;;4952469;29;20055;-50
2022/09/25 02:50:46;;;;;;;14.07;11.13;;;12.80;99.90;;;;;;4952452;29;20144;-51
2022/09/25 02:53:27;;;;;;;14.90;10.85;;;12.80;99.90;;;;;;4952854;29;20475;-50
2022/09/25 02:56:13;;;;;;;17.52;11.25;;;12.90;99.90;;;;;;4935347;29;20043;-50
2022/09/25 02:58:58;;;;;;;15.35;11.60;;;12.90;99.90;;;;;;4962294;28;20117;-50
2022/09/25 03:01:27;;;;;;;12.45;11.15;;;13.00;99.90;;;;;;4971597;28;20035;-50
2022/09/25 03:03:56;;;;;;;15.35;11.43;;;12.90;99.90;;;;;;4972281;28;20074;-50
2022/09/25 03:06:23;;;;;;;12.77;10.95;;;12.90;99.90;;;;;;4971689;28;20122;-50
2022/09/25 03:08:55;;;;;;;16.40;11.35;;;12.90;99.90;;;;;;4972142;28;20043;-50
2022/09/25 03:11:22;;;;;;;13.18;9.55;;;12.90;99.90;;;;;;4971936;28;20121;-50
2022/09/25 03:13:59;;;;;;;17.30;10.38;;;13.00;99.90;;;;;;4971476;28;20042;-51
2022/09/25 03:16:49;;;;;;;15.20;10.57;;;13.00;99.90;;;;;;4971936;28;20118;-50
2022/09/25 03:19:15;;;;;;;14.82;10.18;;;13.00;99.90;;;;;;4971859;28;20118;-50
2022/09/25 03:21:41;;;;;;;14.40;10.05;;;13.00;99.90;;;;;;4988026;28;20068;-51
2022/09/25 03:24:08;;;;;;;16.42;10.95;;;13.10;99.90;;;;;;5035274;28;20030;-50
2022/09/25 03:26:33;;;;;;;14.95;10.43;;;13.20;99.90;;;;;;5036118;28;20124;-50
2022/09/25 03:29:02;;;;;;;13.38;10.52;;;13.20;99.90;;;;;;5034920;28;20178;-50
2022/09/25 03:31:28;;;;;;;14.35;10.52;;;13.20;99.90;;;;;;5033130;28;20025;-50
2022/09/25 03:33:55;;;;;;;13.50;10.60;;;13.30;99.90;;;;;;5034778;28;20155;-50
2022/09/25 03:36:23;;;;;;;13.60;10.30;;;13.20;99.90;;;;;;5035047;28;20052;-50
2022/09/25 03:38:51;;;;;;;16.40;9.52;;;13.20;99.90;;;;;;5029269;28;20036;-51
2022/09/25 03:41:21;;;;;;;13.40;9.75;;;13.00;99.90;;;;;;5032902;28;20028;-50
2022/09/25 03:43:50;;;;;;;14.27;9.07;;;12.70;99.90;;;;;;5033501;28;20121;-50
2022/09/25 03:46:18;;;;;;;12.10;8.88;;;12.40;99.90;;;;;;5029563;28;20045;-50
2022/09/25 03:48:45;;;;;;;10.88;9.38;;;12.50;99.90;;;;;;5032425;28;20370;-51
2022/09/25 03:51:11;;;;;;;11.93;8.70;;;12.50;99.90;;;;;;5033161;28;20033;-50
2022/09/25 03:53:37;;;;;;;13.30;9.32;;;12.70;99.90;;;;;;5033098;28;20072;-50
2022/09/25 03:56:06;;;;;;;11.35;9.07;;;12.80;99.90;;;;;;5034232;28;20053;-50
2022/09/25 03:58:33;;;;;;;11.18;9.02;;;12.90;99.90;;;;;;5038345;28;20047;-50
2022/09/25 04:01:00;;;;;;;12.60;8.43;;;13.00;99.90;;;;;;5034030;28;20112;-50
2022/09/25 04:03:28;;;;;;;10.40;9.00;;;13.00;99.90;;;;;;5032755;28;20046;-51
2022/09/25 04:05:55;;;;;;;13.98;8.63;;;13.00;99.90;;;;;;5038148;28;20028;-49
2022/09/25 04:08:25;;;;;;;10.50;7.70;;;13.10;99.90;;;;;;5037332;28;20039;-50
2022/09/25 04:10:55;;;;;;;12.57;8.27;;;13.00;99.90;;;;;;5028930;28;20041;-50
2022/09/25 04:13:22;;;;;;;10.75;8.10;;;13.10;99.90;;;;;;5032588;28;20034;-50
2022/09/25 04:15:48;;;;;;;9.95;8.60;;;13.20;99.90;;;;;;5037643;28;20064;-50
2022/09/25 04:18:14;;;;;;;9.70;8.43;;;13.10;99.90;;;;;;5034538;28;20056;-51
2022/09/25 04:20:40;;;;;;;10.85;8.40;;;12.90;99.90;;;;;;5047758;28;20446;-50
2022/09/25 04:23:06;;;;;;;17.27;10.52;;;13.00;99.90;;;;;;5032506;28;20057;-50
2022/09/25 04:25:32;;;;;;;21.95;16.10;;;13.10;99.90;;;;;;5034508;28;20388;-50
2022/09/25 04:27:58;;;;;;;15.00;11.02;;;12.80;99.90;;;;;;5032984;28;20046;-49
2022/09/25 04:30:25;;;;;;;16.70;11.80;;;12.70;99.90;;;;;;5035462;28;20522;-50
2022/09/25 04:35:35;;;;;;;22.15;14.98;;;12.40;99.90;;;;;;5035535;28;20033;-51
2022/09/25 04:38:01;;;;;;;32.13;19.73;;;12.20;99.90;;;;;;5034862;28;20041;-50
2022/09/25 04:40:28;;;;;;;14.43;9.65;;;12.10;99.90;;;;;;5036262;28;20055;-50
2022/09/25 04:43:02;;;;;;;14.23;11.10;;;12.10;99.90;;;;;;5013835;28;20109;-50
2022/09/25 04:45:29;;;;;;;18.42;13.18;;;12.20;99.90;;;;;;5032404;28;20496;-50
2022/09/25 04:47:58;;;;;;;11.65;9.15;;;12.10;99.90;;;;;;5035718;28;20584;-50
2022/09/25 04:50:25;;;;;;;14.27;8.80;;;12.30;99.90;;;;;;5036887;28;20060;-50
2022/09/25 04:52:51;;;;;;;16.25;9.52;;;12.40;99.90;;;;;;5040801;28;20108;-50
2022/09/25 04:55:18;;;;;;;12.68;9.85;;;12.50;99.90;;;;;;5035983;28;20569;-51
2022/09/25 04:57:44;;;;;;;11.68;9.05;;;12.60;99.90;;;;;;5039737;28;20022;-50
2022/09/25 05:00:16;;;;;;;12.60;9.60;;;12.80;99.90;;;;;;5039787;28;20400;-50
2022/09/25 05:02:41;;;;;;;14.75;9.10;;;13.00;99.90;;;;;;5037617;28;20049;-50
2022/09/25 05:05:07;;;;;;;11.57;8.98;;;13.10;99.90;;;;;;5041496;28;20045;-50
2022/09/25 05:07:34;;;;;;;13.15;9.13;;;13.20;99.90;;;;;;4968493;28;20120;-50
2022/09/25 05:10:00;;;;;;;12.75;9.85;;;13.30;99.90;;;;;;5035631;28;20433;-50
2022/09/25 05:12:25;;;;;;;11.77;8.88;;;13.30;99.90;;;;;;5037438;28;20040;-51
2022/09/25 05:14:51;;;;;;;10.10;8.38;;;13.10;99.90;;;;;;5036375;28;20021;-50
2022/09/25 05:17:17;;;;;;;12.85;8.80;;;13.20;99.90;;;;;;5010156;28;20088;-49
2022/09/25 05:19:42;;;;;;;10.45;9.05;;;13.00;99.90;;;;;;5038249;28;20029;-50
2022/09/25 05:22:08;;;;;;;14.57;8.82;;;13.10;99.90;;;;;;5035272;28;20021;-50
2022/09/25 05:24:34;;;;;;;13.80;9.77;;;13.00;99.90;;;;;;5038746;28;20120;-51
2022/09/25 05:27:00;;;;;;;11.73;9.13;;;13.10;99.90;;;;;;5037675;28;20033;-50
2022/09/25 05:29:26;;;;;;;16.42;9.80;;;13.20;99.90;;;;;;5038385;28;20025;-50
2022/09/25 05:31:51;;;;;;;11.27;9.95;;;13.20;99.90;;;;;;5036995;28;20083;-50
2022/09/25 05:34:17;;;;;;;11.30;9.35;;;13.30;99.90;;;;;;5036173;28;20029;-50
2022/09/25 05:36:43;;;;;;;12.02;9.13;;;13.10;99.90;;;;;;5034121;28;20049;-50
2022/09/25 05:39:12;;;;;;;11.13;9.52;;;12.90;99.90;;;;;;5035799;28;20033;-50
2022/09/25 05:41:37;;;;;;;12.93;11.02;;;12.90;99.90;;;;;;5039351;28;20037;-50
2022/09/25 05:44:08;;;;;;;13.38;11.40;;;13.00;99.90;;;;;;5038249;28;20045;-50
2022/09/25 05:46:37;;;;;;;12.75;10.55;;;13.00;99.90;;;;;;5033439;28;20033;-51
2022/09/25 05:49:03;;;;;;;12.88;11.43;;;13.10;99.90;;;;;;5037099;28;20025;-50
2022/09/25 05:51:30;;;;;;;12.82;11.40;;;13.10;99.90;;;;;;5037015;28;20035;-50
2022/09/25 05:53:55;;;;;;;14.80;11.73;;;13.40;99.90;;;;;;5035299;28;20029;-52
2022/09/25 05:56:24;;;;;;;10.55;9.45;;;13.70;99.90;;;;;;4992799;28;20033;-51
2022/09/25 05:58:51;;;;;;;11.20;8.52;;;13.90;99.90;;;;;;5035713;28;20033;-50
2022/09/25 06:01:18;;;;;;;11.45;10.27;;;14.10;99.90;;;;;;5033491;28;20083;-50
2022/09/25 06:03:44;;;;;;;11.25;8.73;;;14.00;99.90;;;;;;5035279;28;20041;-50
2022/09/25 06:06:10;;;;;;;11.05;8.23;;;14.10;99.90;;;;;;5034400;28;20027;-50
2022/09/25 06:08:36;;;;;;;10.35;7.05;;;14.00;99.90;;;;;;5039175;28;20030;-49
2022/09/25 06:11:03;;;;;;;9.32;7.20;;;13.90;99.90;;;;;;5036653;28;20034;-50
2022/09/25 06:13:34;;;;;;;11.18;10.00;;;14.20;99.90;;;;;;5031085;28;20049;-50
2022/09/25 06:16:00;;;;;;;11.32;8.32;;;;;;;;;;5030850;28;20040;-50
2022/09/25 06:18:26;;;;;;;10.40;8.07;;;14.80;99.90;;;;;;5017094;28;20592;-50
2022/09/25 06:20:59;;;;;;;13.85;8.40;;;15.20;99.90;;;;;;5014037;28;20117;-50
2022/09/25 06:23:25;;;;;;;13.23;8.60;;;;;;;;;;4996105;28;20038;-50
2022/09/25 06:25:50;;;;;;;11.88;7.93;;;15.90;99.90;;;;;;4998178;28;20397;-50
2022/09/25 06:28:16;;;;;;;11.18;8.55;;;15.90;99.90;;;;;;5015195;28;20046;-50
2022/09/25 06:30:42;;;;;;;11.23;8.70;;;16.10;99.90;;;;;;4965819;28;20125;-51
2022/09/25 06:33:12;;;;;;;10.40;8.98;;;16.10;99.90;;;;;;5014564;28;20516;-50
2022/09/25 06:35:46;;;;;;;11.65;9.05;;;16.30;99.90;;;;;;5017054;28;20029;-50
2022/09/25 06:38:14;;;;;;;13.57;10.50;;;16.60;99.90;;;;;;5014242;28;20038;-50
2022/09/25 06:40:40;;;;;;;11.52;9.68;;;17.00;99.90;;;;;;5016767;28;20030;-50
2022/09/25 06:43:08;;;;;;;9.73;7.63;;;;;;;;;;5012375;28;20080;-50
2022/09/25 06:45:34;;;;;;;11.35;7.15;;;17.10;99.90;;;;;;5012684;28;20575;-51
2022/09/25 06:48:02;;;;;;;10.27;7.43;;;17.30;99.90;;;;;;5011215;28;20109;-50
2022/09/25 06:50:36;;;;;;;9.70;6.82;;;17.70;99.90;;;;;;5033676;28;20030;-50
2022/09/25 06:53:02;;;;;;;10.73;6.78;;;18.20;99.90;;;;;;5036058;28;20102;-50
2022/09/25 06:55:31;;;;;;;6.28;5.68;;;18.60;99.90;;;;;;5037721;28;20104;-50
2022/09/25 06:57:57;;;;;;;6.68;5.18;;;19.20;99.90;;;;;;5035227;28;20033;-51
2022/09/25 07:00:23;;;;;;;7.07;4.95;;;19.50;99.90;;;;;;5032352;28;20025;-50
2022/09/25 07:05:33;;;;;;;8.60;5.82;;;20.10;99.90;;;;;;5033561;28;20044;-51
2022/09/25 07:07:59;;;;;;;8.20;6.43;;;20.30;99.90;;;;;;5033506;28;20385;-50
2022/09/25 07:10:25;;;;;;;9.45;6.15;;;20.90;99.90;;;;;;5032427;28;20029;-50
2022/09/25 07:12:51;;;;;;;10.20;6.93;;;20.90;99.90;;;;;;5032028;28;20036;-50
2022/09/25 07:15:17;;;;;;;9.27;5.78;;;21.30;99.90;;;;;;5010911;28;20050;-48
2022/09/25 07:17:43;;;;;;;10.30;6.07;;;21.80;99.90;;;;;;5015021;28;20048;-49
2022/09/25 07:20:12;;;;;;;9.48;6.05;;;22.00;99.90;;;;;;5008978;28;20120;-48
2022/09/25 07:22:39;;;;;;;9.57;6.28;;;21.50;99.90;;;;;;5033369;28;20064;-50
2022/09/25 07:25:06;;;;;;;8.85;5.32;;;22.10;99.90;;;;;;5010078;28;20065;-49
2022/09/25 07:27:31;;;;;;;8.85;6.55;;;21.90;99.90;;;;;;5037476;28;20114;-49
2022/09/25 07:29:57;;;;;;;9.65;6.40;;;21.50;99.90;;;;;;5024199;28;20069;-50
2022/09/25 07:32:23;;;;;;;7.93;6.35;;;21.80;99.90;;;;;;5032890;28;20032;-51
2022/09/25 07:34:49;;;;;;;8.50;5.95;;;22.30;99.90;;;;;;5033859;28;20021;-50
2022/09/25 07:37:16;;;;;;;8.07;6.25;;;22.40;99.90;;;;;;5031131;28;20049;-50
2022/09/25 07:39:42;;;;;;;9.63;6.90;;;22.80;99.90;;;;;;5034787;28;20021;-50
2022/09/25 07:42:08;;;;;;;10.13;7.43;;;22.70;99.90;;;;;;5035771;28;20470;-50
2022/09/25 07:44:34;;;;;;;9.68;7.18;;;23.00;99.90;;;;;;5036014;28;20041;-50
2022/09/25 07:47:01;;;;;;;9.95;7.82;;;;;;;;;;5034126;28;20056;-50
2022/09/25 07:49:28;;;;;;;9.43;8.30;;;23.40;99.90;;;;;;5033892;28;20029;-50
2022/09/25 07:51:53;;;;;;;9.40;7.50;;;23.50;99.90;;;;;;5032130;28;20484;-50
2022/09/25 07:54:19;;;;;;;9.25;6.47;;;23.50;99.90;;;;;;4998164;28;20033;-51
2022/09/25 07:56:45;;;;;;;9.55;6.88;;;23.90;99.90;;;;;;5026106;28;20036;-50
2022/09/25 07:59:10;;;;;;;9.38;7.75;;;23.10;99.90;;;;;;5011357;28;20052;-51
2022/09/25 08:01:36;;;;;;;10.20;7.55;;;;;;;;;;5012945;28;20038;-51
2022/09/25 08:04:02;;;;;;;10.93;7.55;;;;;;;;;;5009697;28;20138;-51
2022/09/25 08:06:29;;;;;;;8.07;6.75;;;;;;;;;;4994773;28;20046;-51
2022/09/25 08:08:54;;;;;;;9.95;6.85;;;24.90;99.90;;;;;;4977527;28;20056;-51
2022/09/25 08:11:22;;;;;;;12.23;6.90;;;24.80;99.90;;;;;;5011516;28;20588;-51
2022/09/25 08:13:48;;;;;;;8.65;6.22;;;24.90;99.80;;;;;;4979071;28;20042;-47
2022/09/25 08:16:19;;;;;;;7.78;5.47;;;24.20;98.80;;;;;;5013880;28;20128;-48
2022/09/25 08:18:46;;;;;;;6.32;5.13;;;24.40;99.40;;;;;;5012086;28;20078;-48
2022/09/25 08:21:14;;;;;;;6.63;5.13;;;24.60;98.70;;;;;;4976321;28;20513;-48
2022/09/25 08:23:41;;;;;;;7.00;4.97;;;24.30;97.50;;;;;;5017892;28;20030;-47
2022/09/25 08:26:07;;;;;;;7.07;5.47;;;24.00;97.60;;;;;;4973069;28;20031;-47
2022/09/25 08:28:34;;;;;;;8.68;5.65;;;;;;;;;;4972143;28;20129;-47
2022/09/25 08:31:03;;;;;;;8.05;6.07;;;24.30;97.80;;;;;;5006393;28;20071;-46
2022/09/25 08:33:33;;;;;;;8.45;5.65;;;;;;;;;;5007924;28;20041;-47
2022/09/25 08:36:00;;;;;;;7.53;5.68;;;;;;;;;;5007114;28;20081;-47
2022/09/25 08:38:27;;;;;;;6.72;5.35;;;;;;;;;;4976199;28;20421;-48
2022/09/25 08:41:04;;;;;;;8.40;5.63;;;27.10;99.90;;;;;;4979364;28;20161;-46
2022/09/25 08:43:33;;;;;;;11.80;5.93;;;27.50;98.80;;;;;;5006268;28;20057;-47
2022/09/25 08:49:01;;;;;;;7.28;4.72;;;;;;;;;;4995682;28;20091;-46
2022/09/25 08:51:48;;;;;;;5.57;4.35;;;29.20;92.40;;;;;;5002153;28;20073;-47
2022/09/25 08:54:26;;;;;;;7.22;4.63;;;28.60;90.90;;;;;;5003460;28;20117;-46
2022/09/25 08:56:57;;;;;;;7.35;4.90;;;27.60;90.80;;;;;;5005042;28;20057;-48
2022/09/25 08:59:39;;;;;;;8.35;5.82;;;26.90;90.80;;;;;;4966693;28;20076;-47
2022/09/25 09:02:21;;;;;;;7.15;4.78;;;26.70;90.80;;;;;;4995774;28;20044;-46
2022/09/25 09:04:54;;;;;;;;;;;25.70;91.20;;;;;;5033256;28;20494;-46
2022/09/25 09:07:36;;;;;;;7.55;4.88;;;25.70;91.20;;;;;;5036440;28;20316;-48
2022/09/25 09:10:14;;;;;;;;;;;25.70;91.20;;;;;;5030068;28;20020;-48
2022/09/25 09:12:47;;;;;;;9.60;4.47;;;25.70;91.40;;;;;;5034855;28;19947;-48
2022/09/25 09:15:26;;;;;;;7.70;5.18;;;25.20;90.60;;;;;;5038705;28;20472;-47
2022/09/25 09:17:53;;;;;;;8.25;5.28;;;25.30;90.40;;;;;;5035288;28;20108;-46
2022/09/25 09:20:26;;;;;;;7.13;4.68;;;25.30;90.70;;;;;;5013754;28;20523;-47
2022/09/25 09:22:52;;;;;;;8.57;4.85;;;24.90;90.50;;;;;;5036265;28;20045;-47
2022/09/25 09:25:34;;;;;;;7.18;4.63;;;25.00;90.90;;;;;;5039110;28;20384;-47
2022/09/25 09:28:38;;;;;;;6.78;4.32;;;25.00;91.80;;;;;;5035966;28;20086;-46
2022/09/25 09:31:17;;;;;;;8.38;4.43;;;25.30;91.20;;;;;;5042652;28;20044;-48
2022/09/25 09:33:48;;;;;;;8.80;4.95;;;25.40;90.60;;;;;;5043116;28;20040;-46
2022/09/25 09:36:32;;;;;;;6.72;4.22;;;25.40;91.00;;;;;;5040727;28;20049;-48
2022/09/25 09:39:27;;;;;;;10.82;4.35;;;25.50;90.60;;;;;;5031219;28;20045;-48
2022/09/25 09:42:03;;;;;;;6.35;4.47;;;25.60;91.40;;;;;;5038402;28;20069;-48
2022/09/25 09:45:08;;;;;;;9.15;3.85;;;25.40;91.10;;;;;;5037992;28;20041;-47
2022/09/25 09:48:00;;;;;;;7.40;4.65;;;25.40;90.50;;;;;;5034881;28;20055;-46
2022/09/25 09:50:41;;;;;;;8.88;5.05;;;25.40;91.10;;;;;;5038394;28;20064;-47
2022/09/25 09:53:21;;;;;;;5.70;4.13;;;25.20;93.30;;;;;;5029513;28;20120;-46
2022/09/25 09:55:52;;;;;;;9.50;4.68;;;25.30;95.10;;;;;;5034718;28;20033;-46
2022/09/25 09:58:27;;;;;;;6.38;4.43;;;25.30;93.70;;;;;;5034932;28;20025;-46
2022/09/25 10:00:54;;;;;;;9.80;4.65;;;25.20;93.30;;;;;;5010106;28;20038;-45
2022/09/25 10:03:35;;;;;;;8.07;4.65;;;25.00;91.80;;;;;;5035491;28;20029;-45
2022/09/25 10:06:07;;;;;;;9.50;5.57;;;24.40;91.90;;;;;;5034945;28;20116;-45
2022/09/25 10:08:34;;;;;;;11.02;4.88;;;;;;;;;;5036636;28;20104;-46
2022/09/25 10:11:03;;;;;;;6.18;4.68;;;;;;;;;;5049224;28;20041;-46
2022/09/25 10:13:36;;;;;;;10.57;5.97;;;24.20;98.90;;;;;;5053319;28;20041;-46
2022/09/25 10:16:10;;;;;;;10.18;5.05;;;24.10;99.90;;;;;;5042741;28;20064;-46
2022/09/25 10:19:09;;;;;;;9.07;4.32;;;24.10;98.30;;;;;;5035529;28;20029;-46
2022/09/25 10:21:38;;;;;;;11.55;4.75;;;;;;;;;;4967018;28;20065;-45
2022/09/25 10:24:04;;;;;;;5.88;4.70;;;;;;;;;;4973617;28;20053;-45
2022/09/25 10:26:37;;;;;;;5.60;4.35;;;;;;;;;;4975002;28;20039;-45
2022/09/25 10:29:24;;;;;;;8.23;4.75;;;23.70;95.00;;;;;;4978181;28;20034;-46
2022/09/25 10:32:02;;;;;;;6.07;4.30;;;23.60;91.00;;;;;;4939985;28;20034;-46
2022/09/25 10:34:30;;;;;;;19.02;5.43;;;23.60;90.90;;;;;;4971697;28;20512;-46
2022/09/25 10:36:56;;;;;;;16.35;4.78;;;23.70;91.20;;;;;;4973153;28;20066;-45
2022/09/25 10:39:39;;;;;;;14.63;4.90;;;23.80;91.50;;;;;;4925735;28;20039;-46
2022/09/25 10:42:38;;;;;;;6.22;4.22;;;23.70;91.60;;;;;;4974968;28;20058;-49
2022/09/25 10:45:21;;;;;;;6.90;3.13;;;23.70;91.30;;;;;;4969772;28;20554;-45
2022/09/25 10:50:35;;;;;;;34.80;5.50;;;24.00;91.20;;;;;;4962550;28;20411;-47
2022/09/25 10:53:03;;;;;;;21.35;7.50;;;24.00;92.50;;;;;;4963405;28;20562;-46
2022/09/25 10:55:33;;;;;;;17.02;10.05;;;24.00;91.20;;;;;;4969276;28;20549;-45
2022/09/25 10:58:06;;;;;;;69.32;43.67;;;23.90;91.60;;;;;;4998916;28;20473;-46
2022/09/25 11:00:41;;;;;;;27.33;18.83;;;24.00;90.80;;;;;;5034588;28;20026;-46
2022/09/25 11:03:25;;;;;;;13.20;8.65;;;24.10;91.00;;;;;;5032123;28;20030;-45
2022/09/25 11:06:00;;;;;;;75.10;47.03;;;23.90;90.90;;;;;;5030791;28;20084;-47
2022/09/25 11:08:29;;;;;;;67.55;43.33;;;23.90;91.10;;;;;;5035421;28;20130;-47
2022/09/25 11:10:56;;;;;;;147.18;83.40;;;;;;;;;;5036120;28;20041;-48
2022/09/25 11:13:27;;;;;;;24.77;16.13;;;23.40;91.10;;;;;;5035018;28;20369;-48
2022/09/25 11:15:57;;;;;;;59.20;35.83;;;23.50;91.70;;;;;;5030046;28;20453;-46
2022/09/25 11:18:35;;;;;;;46.42;34.35;;;23.30;91.50;;;;;;5032585;28;20029;-48
2022/09/25 11:21:03;;;;;;;7.80;6.50;;;22.90;90.20;;;;;;5048559;28;20100;-46
2022/09/25 11:23:42;;;;;;;13.35;9.38;;;23.00;91.20;;;;;;5033747;28;20116;-50
2022/09/25 11:26:17;;;;;;;11.55;7.32;;;23.10;91.90;;;;;;5014219;28;20548;-49
2022/09/25 11:28:52;;;;;;;4.80;3.58;;;23.30;92.10;;;;;;5033455;28;20401;-50
2022/09/25 11:31:23;;;;;;;7.15;3.40;;;23.10;90.30;;;;;;5030659;28;20404;-48
2022/09/25 11:33:58;;;;;;;6.22;3.08;;;22.90;91.10;;;;;;5032650;28;20063;-49
2022/09/25 11:36:31;;;;;;;18.10;15.20;;;22.80;91.60;;;;;;5030851;28;20393;-47
2022/09/25 11:42:24;;;;;;;14.10;11.23;;;23.00;92.50;;;;;;5031522;28;20558;-47
2022/09/25 11:45:29;;;;;;;25.35;19.05;;;23.00;92.60;;;;;;5012081;28;20081;-47
2022/09/25 11:48:21;;;;;;;24.92;17.67;;;22.80;92.40;;;;;;5029322;28;20086;-47
2022/09/25 11:50:59;;;;;;;15.07;11.32;;;22.70;92.60;;;;;;5034256;28;20544;-48
2022/09/25 11:53:53;;;;;;;7.80;5.00;;;22.60;93.10;;;;;;5034227;28;20072;-48
2022/09/25 11:56:34;;;;;;;10.52;5.85;;;22.50;93.50;;;;;;5028601;28;20025;-47
2022/09/25 11:59:24;;;;;;;8.25;3.63;;;22.50;93.90;;;;;;5032104;28;20481;-46
2022/09/25 12:02:12;;;;;;;6.47;4.68;;;22.50;94.00;;;;;;5026935;28;20040;-47
2022/09/25 12:04:50;;;;;;;19.40;10.05;;;;;;;;;;5034514;28;20025;-46
2022/09/25 12:07:45;;;;;;;20.85;14.93;;;22.20;94.10;;;;;;5034194;28;20374;-46
2022/09/25 12:10:25;;;;;;;14.60;9.27;;;22.10;94.80;;;;;;5031123;28;20052;-47
2022/09/25 12:13:30;;;;;;;8.90;6.00;;;22.10;95.60;;;;;;5032168;28;20477;-46
2022/09/25 12:16:11;;;;;;;13.82;8.63;;;22.00;96.00;;;;;;5010226;28;20042;-47
2022/09/25 12:18:46;;;;;;;12.80;6.77;;;22.00;97.00;;;;;;5009105;28;20394;-47
2022/09/25 12:21:35;;;;;;;28.13;16.42;;;21.90;97.60;;;;;;5005817;28;20325;-48
2022/09/25 12:24:08;;;;;;;16.92;10.40;;;21.70;97.90;;;;;;5004293;28;20041;-52
2022/09/25 12:26:39;;;;;;;22.65;12.40;;;21.50;98.60;;;;;;4992050;28;20044;-52
2022/09/25 12:29:11;;;;;;;27.38;18.33;;;21.40;99.10;;;;;;5009870;28;20529;-52
2022/09/25 12:31:52;;;;;;;31.20;19.48;;;21.40;99.20;;;;;;5005518;28;20042;-51
2022/09/25 12:34:36;;;;;;;24.73;15.07;;;21.20;99.60;;;;;;5015301;28;20038;-51
2022/09/25 12:37:02;;;;;;;24.60;15.00;;;21.20;99.90;;;;;;5010171;28;20077;-52
2022/09/25 12:39:39;;;;;;;32.78;20.83;;;21.20;99.90;;;;;;5011153;28;20460;-51
2022/09/25 12:42:16;;;;;;;38.05;24.52;;;21.20;99.90;;;;;;5011829;28;20030;-51
2022/09/25 12:45:02;;;;;;;29.42;18.90;;;21.20;99.90;;;;;;5009868;28;20104;-52
2022/09/25 12:47:32;;;;;;;28.73;19.63;;;21.20;99.90;;;;;;5010948;28;20060;-51
2022/09/25 12:50:08;;;;;;;16.10;9.60;;;21.20;99.90;;;;;;5011709;28;20095;-51
2022/09/25 12:52:53;;;;;;;18.10;10.98;;;21.40;99.90;;;;;;5036620;28;20048;-52
2022/09/25 12:55:37;;;;;;;12.25;7.68;;;21.60;99.90;;;;;;5031827;28;20041;-52
2022/09/25 12:58:26;;;;;;;32.80;21.75;;;21.50;99.90;;;;;;5019598;28;20041;-52
2022/09/25 13:01:00;;;;;;;27.23;18.35;;;21.60;99.90;;;;;;5031971;28;20033;-52
2022/09/25 13:03:29;;;;;;;19.50;9.73;;;21.70;99.70;;;;;;5030628;28;20469;-52
2022/09/25 13:06:16;;;;;;;18.13;9.18;;;21.60;99.90;;;;;;5046169;28;20092;-51
2022/09/25 13:08:55;;;;;;;12.02;6.95;;;21.60;99.90;;;;;;5030961;28;20029;-52
2022/09/25 13:11:31;;;;;;;15.55;7.68;;;21.60;99.90;;;;;;5046483;28;20037;-52
2022/09/25 13:13:58;;;;;;;15.50;9.35;;;21.50;99.90;;;;;;5031071;28;20398;-52
2022/09/25 13:16:25;;;;;;;18.42;10.48;;;21.50;99.90;;;;;;4967143;28;20044;-52
2022/09/25 13:19:21;;;;;;;17.88;9.27;;;21.70;99.90;;;;;;5034284;28;20021;-52
2022/09/25 13:21:47;;;;;;;9.65;5.82;;;21.60;99.90;;;;;;5037943;28;20022;-52
2022/09/25 13:24:16;;;;;;;17.55;9.30;;;21.50;99.90;;;;;;5035462;28;20373;-52
2022/09/25 13:26:54;;;;;;;17.90;10.88;;;21.60;99.90;;;;;;5034303;28;20037;-53
2022/09/25 13:29:29;;;;;;;24.15;12.02;;;21.40;99.90;;;;;;5040724;28;20088;-58